createdAt,value
2018-05-16T06:41:00.308Z,12.90
2018-05-16T06:43:38.614Z,12.90
2018-05-16T06:46:10.786Z,13.00
2018-05-16T06:48:40.145Z,13.00
2018-05-16T06:51:29.743Z,13.00
2018-05-16T06:54:00.289Z,12.90
2018-05-16T06:56:29.767Z,13.00
2018-05-16T06:58:59.780Z,13.00
2018-05-16T07:01:36.587Z,13.00
2018-05-16T07:04:11.118Z,13.10
2018-05-16T07:06:40.326Z,13.10
2018-05-16T07:09:10.850Z,13.20
2018-05-16T07:11:39.634Z,13.20
2018-05-16T07:14:07.349Z,13.20
2018-05-16T07:16:36.205Z,13.30
2018-05-16T07:19:04.959Z,13.30
2018-05-16T07:21:38.233Z,13.50
2018-05-16T07:24:06.764Z,13.50
2018-05-16T07:26:35.360Z,13.60
2018-05-16T07:29:05.169Z,13.70
2018-05-16T07:31:35.741Z,13.90
2018-05-16T07:34:05.268Z,13.90
2018-05-16T07:36:35.059Z,14.00
2018-05-16T07:39:04.364Z,14.00
2018-05-16T07:41:33.570Z,14.10
2018-05-16T07:44:03.676Z,14.10
2018-05-16T07:46:38.232Z,14.20
2018-05-16T07:49:06.915Z,14.10
2018-05-16T07:51:36.009Z,14.10
2018-05-16T07:54:05.578Z,14.10
2018-05-16T07:56:33.548Z,14.10
2018-05-16T07:59:04.421Z,14.10
2018-05-16T08:01:34.729Z,14.10
2018-05-16T08:04:04.665Z,14.10
2018-05-16T08:06:35.973Z,14.10
2018-05-16T08:09:03.970Z,14.10
2018-05-16T08:11:33.452Z,14.10
2018-05-16T08:14:04.905Z,14.20
2018-05-16T08:16:36.627Z,14.10
2018-05-16T08:19:06.657Z,14.10
2018-05-16T08:21:39.540Z,14.00
2018-05-16T08:24:07.419Z,13.90
2018-05-16T08:41:43.451Z,13.70
2018-05-16T08:44:13.045Z,13.70
2018-05-16T08:46:42.924Z,13.70
2018-05-16T08:49:12.797Z,13.80
2018-05-16T08:51:41.442Z,13.90
2018-05-16T08:54:12.923Z,14.00
2018-05-16T08:56:42.853Z,14.00
2018-05-16T08:59:21.178Z,14.00
2018-05-16T09:01:50.912Z,14.20
2018-05-16T09:04:20.716Z,14.20
2018-05-16T09:10:19.259Z,14.20
2018-05-16T09:15:41.219Z,14.10
2018-05-16T09:21:10.836Z,14.10
2018-05-16T09:23:38.447Z,14.10
2018-05-16T09:26:06.127Z,14.10
2018-05-16T09:28:33.723Z,14.20
2018-05-16T09:31:01.580Z,14.20
2018-05-16T09:33:29.146Z,14.20
2018-05-16T09:35:57.211Z,14.20
2018-05-16T09:38:28.284Z,14.10
2018-05-16T09:40:55.942Z,14.20
2018-05-16T09:43:23.563Z,14.20
2018-05-16T09:45:52.663Z,14.30
2018-05-16T09:48:27.251Z,14.30
2018-05-16T09:50:55.697Z,14.40
2018-05-16T09:53:23.413Z,14.40
2018-05-16T09:55:50.981Z,14.40
2018-05-16T09:58:20.095Z,14.50
2018-05-16T10:01:11.727Z,14.50
2018-05-16T10:03:39.826Z,14.40
2018-05-16T10:11:58.444Z,14.30
2018-05-16T10:14:26.959Z,14.40
2018-05-16T10:16:54.546Z,14.30
2018-05-16T10:19:24.602Z,14.40
2018-05-16T10:21:55.388Z,14.30
2018-05-16T10:24:23.229Z,14.30
2018-05-16T10:26:51.755Z,14.30
2018-05-16T10:29:21.695Z,14.40
2018-05-16T10:31:51.124Z,14.30
2018-05-16T10:34:20.748Z,14.40
2018-05-16T10:37:01.426Z,14.40
2018-05-16T10:39:48.496Z,14.40
2018-05-16T10:42:16.271Z,14.50
2018-05-16T10:44:44.708Z,14.50
2018-05-16T10:47:12.462Z,14.50
2018-05-16T10:49:40.259Z,14.60
2018-05-16T10:52:07.912Z,14.60
2018-05-16T10:57:29.453Z,14.70
2018-05-16T10:59:57.114Z,14.70
2018-05-16T11:02:25.529Z,14.70
2018-05-16T11:04:55.681Z,14.70
2018-05-16T11:07:27.140Z,14.70
2018-05-16T11:10:03.520Z,14.80
2018-05-16T11:12:31.913Z,14.90
2018-05-16T11:14:59.563Z,14.90
2018-05-16T11:17:28.457Z,14.90
2018-05-16T11:20:10.067Z,14.80
2018-05-16T11:22:38.422Z,14.70
2018-05-16T11:25:06.078Z,14.60
2018-05-16T11:27:33.949Z,14.60
2018-05-16T11:30:01.619Z,14.60
2018-05-16T11:32:30.015Z,14.30
2018-05-16T11:34:57.646Z,14.30
2018-05-16T11:37:25.791Z,14.40
2018-05-16T11:39:53.377Z,14.40
2018-05-16T11:42:21.087Z,14.40
2018-05-16T11:44:49.526Z,14.50
2018-05-16T11:47:17.149Z,14.50
2018-05-16T11:49:44.702Z,14.50
2018-05-16T11:52:12.413Z,14.60
2018-05-16T11:54:40.041Z,14.70
2018-05-16T11:57:07.831Z,14.80
2018-05-16T11:59:36.661Z,14.80
2018-05-16T12:02:05.236Z,15.10
2018-05-16T12:04:45.366Z,15.00
2018-05-16T12:07:12.980Z,15.10
2018-05-16T12:09:41.208Z,15.10
2018-05-16T12:12:10.028Z,15.10
2018-05-16T12:14:39.309Z,15.20
2018-05-16T12:17:11.339Z,15.40
2018-05-16T12:19:38.898Z,15.40
2018-05-16T12:22:06.503Z,15.60
2018-05-16T12:27:26.467Z,15.80
2018-05-16T12:29:54.080Z,15.70
2018-05-16T12:32:22.490Z,15.90
2018-05-16T12:34:50.061Z,15.90
2018-05-16T12:37:18.697Z,15.90
2018-05-16T12:39:46.298Z,15.80
2018-05-16T12:42:14.434Z,15.90
2018-05-16T12:44:43.239Z,15.90
2018-05-16T12:47:11.203Z,15.90
2018-05-16T12:49:38.911Z,16.00
2018-05-16T12:52:06.740Z,15.80
2018-05-16T12:54:34.324Z,15.80
2018-05-16T12:57:06.510Z,15.80
2018-05-16T12:59:54.481Z,15.70
2018-05-16T13:02:22.878Z,15.60
2018-05-16T13:04:51.795Z,15.60
2018-05-16T13:09:59.605Z,15.60
2018-05-16T13:12:42.954Z,15.60
2018-05-16T13:15:12.663Z,15.60
2018-05-16T13:17:41.045Z,15.80
2018-05-16T13:20:15.407Z,15.90
2018-05-16T13:22:44.607Z,16.00
2018-05-16T13:25:14.275Z,16.00
2018-05-16T13:27:43.401Z,16.20
2018-05-16T13:30:12.985Z,16.00
2018-05-16T13:35:35.033Z,16.00
2018-05-16T13:38:04.521Z,16.10
2018-05-16T13:40:33.891Z,16.00
2018-05-16T13:43:02.581Z,15.90
2018-05-16T13:45:30.974Z,15.90
2018-05-16T13:47:59.832Z,15.90
2018-05-16T13:50:28.682Z,16.10
2018-05-16T13:52:57.781Z,16.00
2018-05-16T13:55:26.181Z,16.00
2018-05-16T13:57:55.358Z,16.00
2018-05-16T14:00:27.092Z,15.90
2018-05-16T14:02:56.305Z,15.90
2018-05-16T14:05:25.323Z,15.90
2018-05-16T14:07:53.736Z,16.10
2018-05-16T14:10:21.616Z,16.10
2018-05-16T14:12:49.480Z,16.00
2018-05-16T14:15:17.742Z,15.90
2018-05-16T14:17:45.867Z,15.90
2018-05-16T14:20:13.896Z,15.80
2018-05-16T14:25:34.752Z,15.80
2018-05-16T14:30:57.295Z,15.70
2018-05-16T14:33:26.227Z,15.50
2018-05-16T14:35:56.782Z,15.30
2018-05-16T14:38:25.792Z,15.30
2018-05-16T14:40:57.203Z,15.10
2018-05-16T14:43:30.027Z,15.10
2018-05-16T14:46:01.258Z,15.10
2018-05-16T14:48:31.461Z,15.00
2018-05-16T14:51:08.525Z,15.00
2018-05-16T14:53:39.109Z,15.20
2018-05-16T14:59:15.616Z,15.30
2018-05-16T15:01:43.686Z,15.40
2018-05-16T15:04:11.479Z,15.50
2018-05-16T15:06:39.921Z,15.70
2018-05-16T15:09:07.530Z,15.50
2018-05-16T15:11:35.170Z,15.80
2018-05-16T15:14:03.951Z,16.00
2018-05-16T15:16:31.598Z,16.10
2018-05-16T15:18:59.263Z,16.20
2018-05-16T15:21:26.845Z,16.40
2018-05-16T15:23:54.640Z,16.40
2018-05-16T15:26:22.375Z,16.50
2018-05-16T15:28:50.114Z,16.60
2018-05-16T15:34:21.098Z,16.60
2018-05-16T15:36:48.805Z,16.40
2018-05-16T15:39:16.371Z,16.20
2018-05-16T15:41:44.686Z,16.00
2018-05-16T15:44:12.271Z,16.00
2018-05-16T15:46:39.871Z,15.90
2018-05-16T15:49:07.552Z,15.90
2018-05-16T16:17:40.345Z,14.10
2018-05-16T16:20:12.754Z,13.70
2018-05-16T16:25:36.059Z,12.90
2018-05-16T16:54:21.953Z,12.40
2018-05-16T17:49:19.280Z,12.60
2018-05-16T17:51:49.343Z,12.60
2018-05-16T17:54:19.492Z,12.60
2018-05-16T17:56:50.042Z,12.60
2018-05-16T17:59:21.599Z,12.60
2018-05-16T18:01:50.439Z,12.60
2018-05-16T18:04:18.406Z,12.60
2018-05-16T18:06:47.420Z,12.60
2018-05-16T18:09:15.276Z,12.60
2018-05-16T18:11:42.907Z,12.60
2018-05-16T18:14:24.245Z,12.60
2018-05-16T18:17:05.291Z,12.60
2018-05-16T18:19:36.665Z,12.60
2018-05-16T18:22:06.190Z,12.60
2018-05-16T18:24:35.618Z,12.60
2018-05-16T18:27:07.306Z,12.60
2018-05-16T18:29:36.972Z,12.60
2018-05-16T18:32:06.785Z,12.60
2018-05-16T18:34:38.506Z,12.60
2018-05-16T18:37:08.448Z,12.60
2018-05-16T18:39:37.033Z,12.70
2018-05-16T18:42:06.908Z,12.60
2018-05-16T18:44:36.052Z,12.60
2018-05-16T18:47:06.989Z,12.60
2018-05-16T18:49:36.213Z,12.60
2018-05-16T18:52:09.586Z,12.60
2018-05-16T18:54:43.949Z,12.60
2018-05-16T18:57:12.057Z,12.60
2018-05-16T18:59:42.849Z,12.50
2018-05-16T19:02:11.594Z,12.40
2018-05-16T19:04:43.275Z,12.40
2018-05-16T19:19:52.660Z,12.30
2018-05-16T19:22:22.871Z,12.30
2018-05-16T20:04:00.761Z,12.70
2018-05-16T20:06:33.403Z,12.70
2018-05-16T20:12:11.513Z,12.70
2018-05-16T20:26:25.334Z,12.70
2018-05-16T20:29:07.755Z,12.70
2018-05-16T20:37:18.550Z,12.80
2018-05-16T20:39:52.053Z,12.80
2018-05-16T20:48:21.325Z,12.80
2018-05-16T20:50:50.362Z,12.70
2018-05-16T20:53:22.094Z,12.70
2018-05-16T20:58:50.080Z,12.80
2018-05-16T21:01:18.579Z,12.80
2018-05-16T21:06:55.539Z,12.70
2018-05-16T21:12:35.342Z,12.70
2018-05-16T21:15:04.963Z,12.70
2018-05-16T21:17:40.535Z,12.70
2018-05-16T21:20:17.121Z,12.60
2018-05-16T21:23:02.429Z,12.60
2018-05-16T21:25:48.810Z,12.70
2018-05-16T21:37:10.480Z,12.70
2018-05-16T21:40:00.747Z,12.70
2018-05-16T21:56:55.860Z,12.60
2018-05-16T21:59:44.020Z,12.50
2018-05-16T22:02:32.594Z,12.60
2018-05-16T22:05:02.411Z,12.50
2018-05-16T22:10:33.714Z,12.40
2018-05-16T22:15:51.837Z,12.40
2018-05-16T22:26:57.507Z,12.30
2018-05-16T22:29:45.750Z,12.30
2018-05-16T22:35:18.607Z,12.30
2018-05-16T22:40:43.901Z,12.30
2018-05-16T22:43:11.056Z,12.30
2018-05-16T22:45:43.392Z,12.40
2018-05-16T22:48:12.221Z,12.40
2018-05-16T22:50:39.850Z,12.40
2018-05-16T22:53:07.492Z,12.30
2018-05-16T22:55:35.324Z,12.40
2018-05-16T22:58:03.233Z,12.30
2018-05-16T23:00:31.777Z,12.20
2018-05-16T23:02:59.438Z,12.30
2018-05-16T23:05:27.305Z,12.30
2018-05-16T23:07:54.918Z,12.30
2018-05-16T23:10:23.452Z,12.30
2018-05-16T23:12:51.117Z,12.30
2018-05-16T23:15:18.978Z,12.30
2018-05-16T23:17:47.534Z,12.30
2018-05-16T23:20:15.203Z,12.30
2018-05-16T23:22:43.144Z,12.30
2018-05-16T23:25:11.003Z,12.30
2018-05-16T23:27:39.741Z,12.30
2018-05-16T23:30:07.362Z,12.30
2018-05-16T23:32:35.013Z,12.40
2018-05-16T23:35:03.645Z,12.40
2018-05-16T23:37:31.403Z,12.40
2018-05-16T23:39:59.026Z,12.50
2018-05-16T23:42:27.516Z,12.50
2018-05-16T23:44:55.320Z,12.40
2018-05-16T23:47:23.811Z,12.50
2018-05-16T23:49:51.647Z,12.50
2018-05-16T23:52:19.502Z,12.50
2018-05-16T23:54:47.064Z,12.50
2018-05-16T23:57:14.756Z,12.60
2018-05-16T23:59:43.492Z,12.60
